sensor_id;sensor_type;location;lat;lon;timestamp;pressure;altitude;pressure_sealevel;temperature;humidity
44934;BME280;30667;43.614;1.442;2023-04-27T00:00:22;100024.75;;;16.11;100.00
44934;BME280;30667;43.614;1.442;2023-04-27T00:02:48;100024.28;;;16.09;100.00
44934;BME280;30667;43.614;1.442;2023-04-27T00:05:13;100017.81;;;16.05;100.00
44934;BME280;30667;43.614;1.442;2023-04-27T00:07:38;100027.78;;;16.01;100.00
44934;BME280;30667;43.614;1.442;2023-04-27T00:10:04;100026.78;;;15.96;100.00
44934;BME280;30667;43.614;1.442;2023-04-27T00:12:31;100016.00;;;15.91;100.00
44934;BME280;30667;43.614;1.442;2023-04-27T00:14:56;100021.59;;;15.86;100.00
44934;BME280;30667;43.614;1.442;2023-04-27T00:17:21;100018.88;;;15.86;100.00
44934;BME280;30667;43.614;1.442;2023-04-27T00:19:47;100017.75;;;15.87;100.00
44934;BME280;30667;43.614;1.442;2023-04-27T00:22:12;100002.63;;;15.81;100.00
44934;BME280;30667;43.614;1.442;2023-04-27T00:24:38;100005.34;;;15.81;100.00
44934;BME280;30667;43.614;1.442;2023-04-27T00:27:04;99993.00;;;15.84;100.00
44934;BME280;30667;43.614;1.442;2023-04-27T00:29:29;99983.88;;;15.79;100.00
44934;BME280;30667;43.614;1.442;2023-04-27T00:31:55;99988.97;;;15.81;100.00
44934;BME280;30667;43.614;1.442;2023-04-27T00:34:20;99990.59;;;15.82;100.00
44934;BME280;30667;43.614;1.442;2023-04-27T00:36:46;99987.69;;;15.78;100.00
44934;BME280;30667;43.614;1.442;2023-04-27T00:39:11;99989.94;;;15.76;100.00
44934;BME280;30667;43.614;1.442;2023-04-27T00:41:37;99990.44;;;15.78;100.00
44934;BME280;30667;43.614;1.442;2023-04-27T00:44:05;99985.56;;;15.75;100.00
44934;BME280;30667;43.614;1.442;2023-04-27T00:46:32;99987.81;;;15.73;100.00
44934;BME280;30667;43.614;1.442;2023-04-27T00:48:57;99982.16;;;15.70;100.00
44934;BME280;30667;43.614;1.442;2023-04-27T00:51:23;99990.03;;;15.71;100.00
44934;BME280;30667;43.614;1.442;2023-04-27T00:53:56;99987.81;;;15.73;100.00
44934;BME280;30667;43.614;1.442;2023-04-27T00:56:22;99994.69;;;15.71;100.00
44934;BME280;30667;43.614;1.442;2023-04-27T00:58:48;99990.34;;;15.70;100.00
44934;BME280;30667;43.614;1.442;2023-04-27T01:01:14;99984.41;;;15.68;100.00
44934;BME280;30667;43.614;1.442;2023-04-27T01:03:39;99995.00;;;15.69;100.00
44934;BME280;30667;43.614;1.442;2023-04-27T01:06:06;99993.50;;;15.63;100.00
44934;BME280;30667;43.614;1.442;2023-04-27T01:08:31;100002.53;;;15.64;100.00
44934;BME280;30667;43.614;1.442;2023-04-27T01:10:56;100006.84;;;15.65;100.00
44934;BME280;30667;43.614;1.442;2023-04-27T01:13:22;100007.63;;;15.65;100.00
44934;BME280;30667;43.614;1.442;2023-04-27T01:15:47;100009.25;;;15.66;100.00
44934;BME280;30667;43.614;1.442;2023-04-27T01:18:13;100008.16;;;15.67;100.00
44934;BME280;30667;43.614;1.442;2023-04-27T01:20:39;100001.56;;;15.68;100.00
44934;BME280;30667;43.614;1.442;2023-04-27T01:23:04;99993.88;;;15.70;100.00
44934;BME280;30667;43.614;1.442;2023-04-27T01:25:29;99999.03;;;15.72;100.00
44934;BME280;30667;43.614;1.442;2023-04-27T01:27:55;99987.59;;;15.70;100.00
44934;BME280;30667;43.614;1.442;2023-04-27T01:30:21;100001.25;;;15.70;100.00
44934;BME280;30667;43.614;1.442;2023-04-27T01:32:47;100005.59;;;15.71;100.00
44934;BME280;30667;43.614;1.442;2023-04-27T01:35:13;99996.31;;;15.72;100.00
44934;BME280;30667;43.614;1.442;2023-04-27T01:37:39;99992.75;;;15.71;100.00
44934;BME280;30667;43.614;1.442;2023-04-27T01:40:05;99983.16;;;15.74;100.00
44934;BME280;30667;43.614;1.442;2023-04-27T01:42:30;99992.25;;;15.69;100.00
44934;BME280;30667;43.614;1.442;2023-04-27T01:44:56;99990.66;;;15.68;100.00
44934;BME280;30667;43.614;1.442;2023-04-27T01:47:21;99997.53;;;15.66;100.00
44934;BME280;30667;43.614;1.442;2023-04-27T01:49:47;100006.03;;;15.64;100.00
44934;BME280;30667;43.614;1.442;2023-04-27T01:52:12;100009.25;;;15.66;100.00
44934;BME280;30667;43.614;1.442;2023-04-27T01:54:37;100002.88;;;15.71;100.00
44934;BME280;30667;43.614;1.442;2023-04-27T01:57:03;100001.25;;;15.70;100.00
44934;BME280;30667;43.614;1.442;2023-04-27T01:59:28;100003.50;;;15.68;100.00
44934;BME280;30667;43.614;1.442;2023-04-27T02:01:54;100000.91;;;15.62;100.00
44934;BME280;30667;43.614;1.442;2023-04-27T02:04:20;99989.38;;;15.66;100.00
44934;BME280;30667;43.614;1.442;2023-04-27T02:06:46;99988.06;;;15.63;100.00
44934;BME280;30667;43.614;1.442;2023-04-27T02:09:11;99982.16;;;15.70;100.00
44934;BME280;30667;43.614;1.442;2023-04-27T02:11:37;99982.47;;;15.68;100.00
44934;BME280;30667;43.614;1.442;2023-04-27T02:14:03;99985.81;;;15.65;100.00
44934;BME280;30667;43.614;1.442;2023-04-27T02:16:28;99984.72;;;15.66;100.00
44934;BME280;30667;43.614;1.442;2023-04-27T02:18:54;99988.06;;;15.63;100.00
44934;BME280;30667;43.614;1.442;2023-04-27T02:21:19;99987.25;;;15.62;100.00
44934;BME280;30667;43.614;1.442;2023-04-27T02:23:45;99985.94;;;15.60;100.00
44934;BME280;30667;43.614;1.442;2023-04-27T02:26:17;99985.78;;;15.56;100.00
44934;BME280;30667;43.614;1.442;2023-04-27T02:28:44;99990.78;;;15.63;100.00
44934;BME280;30667;43.614;1.442;2023-04-27T02:31:10;99993.81;;;15.61;100.00
44934;BME280;30667;43.614;1.442;2023-04-27T02:33:36;99996.72;;;15.65;100.00
44934;BME280;30667;43.614;1.442;2023-04-27T02:36:01;99984.84;;;15.61;100.00
44934;BME280;30667;43.614;1.442;2023-04-27T02:38:28;99994.66;;;15.62;100.00
44934;BME280;30667;43.614;1.442;2023-04-27T02:40:54;100004.91;;;15.65;100.00
44934;BME280;30667;43.614;1.442;2023-04-27T02:43:19;99990.31;;;15.61;100.00
44934;BME280;30667;43.614;1.442;2023-04-27T02:45:45;99986.16;;;15.64;100.00
44934;BME280;30667;43.614;1.442;2023-04-27T02:48:10;99983.22;;;15.60;100.00
44934;BME280;30667;43.614;1.442;2023-04-27T02:50:40;99988.19;;;15.58;100.00
44934;BME280;30667;43.614;1.442;2023-04-27T02:53:06;99984.16;;;15.55;100.00
44934;BME280;30667;43.614;1.442;2023-04-27T02:55:31;99991.84;;;15.53;100.00
44934;BME280;30667;43.614;1.442;2023-04-27T02:57:57;99993.16;;;15.56;100.00
44934;BME280;30667;43.614;1.442;2023-04-27T03:00:22;99992.66;;;15.54;100.00
44934;BME280;30667;43.614;1.442;2023-04-27T03:02:48;99993.16;;;15.56;100.00
44934;BME280;30667;43.614;1.442;2023-04-27T03:05:13;99984.97;;;15.56;100.00
44934;BME280;30667;43.614;1.442;2023-04-27T03:07:38;99993.16;;;15.56;100.00
44934;BME280;30667;43.614;1.442;2023-04-27T03:10:04;99984.78;;;15.52;100.00
44934;BME280;30667;43.614;1.442;2023-04-27T03:12:29;99987.31;;;15.49;100.00
44934;BME280;30667;43.614;1.442;2023-04-27T03:14:55;99985.41;;;15.49;100.00
44934;BME280;30667;43.614;1.442;2023-04-27T03:17:20;99970.97;;;15.49;100.00
44934;BME280;30667;43.614;1.442;2023-04-27T03:19:46;99976.59;;;15.52;100.00
44934;BME280;30667;43.614;1.442;2023-04-27T03:22:13;99967.00;;;15.55;100.00
44934;BME280;30667;43.614;1.442;2023-04-27T03:24:38;99966.69;;;15.56;100.00
44934;BME280;30667;43.614;1.442;2023-04-27T03:27:04;99972.44;;;15.55;100.00
44934;BME280;30667;43.614;1.442;2023-04-27T03:29:29;99966.81;;;15.51;100.00
44934;BME280;30667;43.614;1.442;2023-04-27T03:31:55;99965.19;;;15.50;100.00
44934;BME280;30667;43.614;1.442;2023-04-27T03:34:22;99966.19;;;15.54;100.00
44934;BME280;30667;43.614;1.442;2023-04-27T03:36:48;99959.94;;;15.54;100.00
44934;BME280;30667;43.614;1.442;2023-04-27T03:39:13;99968.94;;;15.54;100.00
44934;BME280;30667;43.614;1.442;2023-04-27T03:41:38;99964.59;;;15.53;100.00
44934;BME280;30667;43.614;1.442;2023-04-27T03:44:04;99963.41;;;15.46;100.00
44934;BME280;30667;43.614;1.442;2023-04-27T03:46:30;99966.97;;;15.46;100.00
44934;BME280;30667;43.614;1.442;2023-04-27T03:48:55;99971.91;;;15.44;100.00
44934;BME280;30667;43.614;1.442;2023-04-27T03:51:21;99973.84;;;15.43;100.00
44934;BME280;30667;43.614;1.442;2023-04-27T03:53:46;99982.19;;;15.47;100.00
44934;BME280;30667;43.614;1.442;2023-04-27T03:56:11;99976.25;;;15.45;100.00
44934;BME280;30667;43.614;1.442;2023-04-27T03:58:37;99977.34;;;15.44;100.00
44934;BME280;30667;43.614;1.442;2023-04-27T04:01:02;99978.50;;;15.43;100.00
44934;BME280;30667;43.614;1.442;2023-04-27T04:03:28;99982.94;;;15.39;100.00
44934;BME280;30667;43.614;1.442;2023-04-27T04:05:53;99980.38;;;15.42;100.00
44934;BME280;30667;43.614;1.442;2023-04-27T04:08:18;99977.66;;;15.42;100.00
44934;BME280;30667;43.614;1.442;2023-04-27T04:10:44;99973.34;;;15.41;100.00
44934;BME280;30667;43.614;1.442;2023-04-27T04:13:09;99957.78;;;15.42;100.00
44934;BME280;30667;43.614;1.442;2023-04-27T04:15:34;99943.34;;;15.41;100.00
44934;BME280;30667;43.614;1.442;2023-04-27T04:18:00;99952.50;;;15.46;100.00
44934;BME280;30667;43.614;1.442;2023-04-27T04:20:25;99949.91;;;15.40;100.00
44934;BME280;30667;43.614;1.442;2023-04-27T04:22:54;99956.69;;;15.43;100.00
44934;BME280;30667;43.614;1.442;2023-04-27T04:25:19;99946.88;;;15.42;100.00
44934;BME280;30667;43.614;1.442;2023-04-27T04:27:45;99955.53;;;15.44;100.00
44934;BME280;30667;43.614;1.442;2023-04-27T04:30:12;99961.31;;;15.42;100.00
44934;BME280;30667;43.614;1.442;2023-04-27T04:32:37;99967.69;;;15.38;100.00
44934;BME280;30667;43.614;1.442;2023-04-27T04:35:04;99962.22;;;15.38;100.00
44934;BME280;30667;43.614;1.442;2023-04-27T04:37:32;99965.28;;;15.36;100.00
44934;BME280;30667;43.614;1.442;2023-04-27T04:39:58;99976.69;;;15.38;100.00
44934;BME280;30667;43.614;1.442;2023-04-27T04:42:24;99967.19;;;15.36;100.00
44934;BME280;30667;43.614;1.442;2023-04-27T04:44:49;99974.06;;;15.33;100.00
44934;BME280;30667;43.614;1.442;2023-04-27T04:47:15;99974.75;;;15.39;100.00
44934;BME280;30667;43.614;1.442;2023-04-27T04:49:40;99980.84;;;15.36;100.00
44934;BME280;30667;43.614;1.442;2023-04-27T04:52:06;99983.38;;;15.32;100.00
44934;BME280;30667;43.614;1.442;2023-04-27T04:54:31;99988.03;;;15.32;100.00
44934;BME280;30667;43.614;1.442;2023-04-27T04:56:56;99976.69;;;15.38;100.00
44934;BME280;30667;43.614;1.442;2023-04-27T04:59:26;99980.53;;;15.37;100.00
44934;BME280;30667;43.614;1.442;2023-04-27T05:01:51;99981.44;;;15.33;100.00
44934;BME280;30667;43.614;1.442;2023-04-27T05:04:20;99989.13;;;15.31;100.00
44934;BME280;30667;43.614;1.442;2023-04-27T05:06:45;99984.78;;;15.30;100.00
44934;BME280;30667;43.614;1.442;2023-04-27T05:09:11;99995.88;;;15.33;100.00
44934;BME280;30667;43.614;1.442;2023-04-27T05:11:36;99994.78;;;15.34;100.00
44934;BME280;30667;43.614;1.442;2023-04-27T05:14:02;99981.94;;;15.35;100.00
44934;BME280;30667;43.614;1.442;2023-04-27T05:16:27;99985.63;;;15.30;100.00
44934;BME280;30667;43.614;1.442;2023-04-27T05:18:52;99990.13;;;15.35;100.00
44934;BME280;30667;43.614;1.442;2023-04-27T05:21:19;99982.75;;;15.35;100.00
44934;BME280;30667;43.614;1.442;2023-04-27T05:23:46;99977.50;;;15.39;100.00
44934;BME280;30667;43.614;1.442;2023-04-27T05:26:16;99976.38;;;15.40;100.00
44934;BME280;30667;43.614;1.442;2023-04-27T05:28:42;99985.66;;;15.39;100.00
44934;BME280;30667;43.614;1.442;2023-04-27T05:31:08;99990.75;;;15.32;100.00
44934;BME280;30667;43.614;1.442;2023-04-27T05:33:33;99992.84;;;15.35;100.00
44934;BME280;30667;43.614;1.442;2023-04-27T05:35:59;99999.13;;;15.35;100.00
44934;BME280;30667;43.614;1.442;2023-04-27T05:38:25;99997.81;;;15.33;100.00
44934;BME280;30667;43.614;1.442;2023-04-27T05:40:54;100000.53;;;15.33;100.00
44934;BME280;30667;43.614;1.442;2023-04-27T05:43:20;100003.56;;;15.31;100.00
44934;BME280;30667;43.614;1.442;2023-04-27T05:45:46;100000.09;;;15.39;100.00
44934;BME280;30667;43.614;1.442;2023-04-27T05:48:11;100003.75;;;15.35;100.00
44934;BME280;30667;43.614;1.442;2023-04-27T05:50:38;100007.97;;;15.41;100.00
44934;BME280;30667;43.614;1.442;2023-04-27T05:53:03;100011.22;;;15.43;100.00
44934;BME280;30667;43.614;1.442;2023-04-27T05:55:30;100017.31;;;15.49;100.00
44934;BME280;30667;43.614;1.442;2023-04-27T05:57:55;100013.63;;;15.44;100.00
44934;BME280;30667;43.614;1.442;2023-04-27T06:00:21;100015.09;;;15.51;100.00
44934;BME280;30667;43.614;1.442;2023-04-27T06:02:47;100001.44;;;15.51;100.00
44934;BME280;30667;43.614;1.442;2023-04-27T06:05:12;100000.41;;;15.60;100.00
44934;BME280;30667;43.614;1.442;2023-04-27T06:07:38;100003.44;;;15.59;100.00
44934;BME280;30667;43.614;1.442;2023-04-27T06:10:04;100000.72;;;15.59;100.00
44934;BME280;30667;43.614;1.442;2023-04-27T06:12:30;99987.25;;;15.62;100.00
44934;BME280;30667;43.614;1.442;2023-04-27T06:14:56;99988.88;;;15.64;100.00
44934;BME280;30667;43.614;1.442;2023-04-27T06:17:21;99995.94;;;15.65;100.00
44934;BME280;30667;43.614;1.442;2023-04-27T06:19:46;99993.88;;;15.70;100.00
44934;BME280;30667;43.614;1.442;2023-04-27T06:22:12;99996.94;;;15.69;100.00
44934;BME280;30667;43.614;1.442;2023-04-27T06:24:37;100003.97;;;15.70;100.00
44934;BME280;30667;43.614;1.442;2023-04-27T06:27:03;100006.69;;;15.70;100.00
44934;BME280;30667;43.614;1.442;2023-04-27T06:29:28;99997.66;;;15.83;100.00
44934;BME280;30667;43.614;1.442;2023-04-27T06:31:54;99993.25;;;15.96;100.00
44934;BME280;30667;43.614;1.442;2023-04-27T06:34:19;99982.97;;;16.02;100.00
44934;BME280;30667;43.614;1.442;2023-04-27T06:36:44;99973.84;;;16.06;100.00
44934;BME280;30667;43.614;1.442;2023-04-27T06:39:10;99970.06;;;16.25;100.00
44934;BME280;30667;43.614;1.442;2023-04-27T06:41:35;99972.81;;;16.33;100.00
44934;BME280;30667;43.614;1.442;2023-04-27T06:44:01;99974.91;;;16.37;100.00
44934;BME280;30667;43.614;1.442;2023-04-27T06:46:26;99975.56;;;16.42;100.00
44934;BME280;30667;43.614;1.442;2023-04-27T06:48:51;99973.50;;;16.57;100.00
44934;BME280;30667;43.614;1.442;2023-04-27T12:26:52;99840.50;;;18.29;100.00
